Etusivu
METAR-TAF:

METAR-TAF

Lentoasemat :

Sheldon Municipal Airport

Sheldon, Iowa, Yhdysvallat

Leveyspiiri: 43-13N, Pituuspiiri: 095-50W, korkeus merenpinnasta: 432 m

Tämänhetkinen sää

Tämä raportti tehtiin 31 minuuttia sitten, kello 09.35 UTC
Tuuli 7 kn idästä/kaakosta
Lämpötila -1°C
Kosteus 100%
Ilmanpaine 1009 hPa
Näkyvyys: 12.9 km
Hajanaisia pilviä 5000 ft:n korkeudessa
Hajonneita pilviä 6000 ft:n korkeudessa
Pilvistä 7500 ft:n korkeudessa

METAR: KSHL 170935Z AUTO 12007KT 8SM SCT050 BKN060 OVC075 M01/M01 A2979 RMK AO2

Aika: 04:06 (10:06 UTC)


TAF: puuttuu

Säähavainnot ja -ennusteet yli 4000 lentoasemalta (METAR- ja TAF-raportit).

Käytössä olevat sääasemat on merkitty karttaan keltaisilla ja punaisilla pisteillä.

Aseta hiiri pisteen päälle nähdäksesi sääaseman nimen.

Klikkaa sitten nähdäksesi säähavainnot ja -ennusteet.

Kartan vaihtaminen: klikkaa mustalla rastilla varustettuja vihreitä pisteitä, niin voit zoomata sisään; viivalla varustettua vihreää pistettä, niin voit zoomata ulos tai vihreitä nuolia, niin pääset viereisille kartoille.


METAR-TAF: